createdAt,value
2016-09-18T00:00:02.355Z,1018.81
2016-09-18T00:01:02.372Z,1018.78
2016-09-18T00:02:02.397Z,1018.77
2016-09-18T00:03:02.421Z,1018.82
2016-09-18T00:04:02.438Z,1018.81
2016-09-18T00:05:02.457Z,1018.79
2016-09-18T00:06:02.484Z,1018.78
2016-09-18T00:07:02.505Z,1018.84
2016-09-18T00:08:02.523Z,1018.86
2016-09-18T00:09:02.543Z,1018.82
2016-09-18T00:10:02.568Z,1018.86
2016-09-18T00:11:02.591Z,1018.82
2016-09-18T00:12:02.613Z,1018.87
2016-09-18T00:13:02.632Z,1018.88
2016-09-18T00:14:02.652Z,1018.85
2016-09-18T00:15:02.671Z,1018.86
2016-09-18T00:16:02.741Z,1018.87
2016-09-18T00:17:02.717Z,1018.88
2016-09-18T00:18:02.738Z,1018.86
2016-09-18T00:19:02.764Z,1018.9
2016-09-18T00:20:02.782Z,1018.88
2016-09-18T00:21:02.804Z,1018.85
2016-09-18T00:22:02.818Z,1018.84
2016-09-18T00:23:02.844Z,1018.89
2016-09-18T00:24:02.861Z,1018.89
2016-09-18T00:25:02.883Z,1018.86
2016-09-18T00:26:02.911Z,1018.85
2016-09-18T00:27:02.935Z,1018.92
2016-09-18T00:28:02.950Z,1018.88
2016-09-18T00:29:02.965Z,1018.91
2016-09-18T00:30:03.001Z,1018.94
2016-09-18T00:31:03.013Z,1018.85
2016-09-18T00:32:03.039Z,1018.9
2016-09-18T00:33:03.052Z,1018.84
2016-09-18T00:34:03.077Z,1018.89
2016-09-18T00:35:03.094Z,1018.91
2016-09-18T00:36:03.124Z,1018.89
2016-09-18T00:37:03.144Z,1018.86
2016-09-18T00:38:03.161Z,1018.85
2016-09-18T00:39:03.183Z,1018.89
2016-09-18T00:40:03.207Z,1018.88
2016-09-18T00:41:03.223Z,1018.92
2016-09-18T00:42:03.254Z,1018.89
2016-09-18T00:43:03.266Z,1018.89
2016-09-18T00:44:03.291Z,1018.91
2016-09-18T00:45:03.310Z,1018.94
2016-09-18T00:46:03.332Z,1019
2016-09-18T00:47:03.353Z,1018.92
2016-09-18T00:48:03.374Z,1018.96
2016-09-18T00:49:03.392Z,1018.93
2016-09-18T00:50:03.411Z,1018.96
2016-09-18T00:51:03.431Z,1018.89
2016-09-18T00:52:03.452Z,1018.88
2016-09-18T00:53:03.478Z,1018.9
2016-09-18T00:54:03.497Z,1018.89
2016-09-18T00:55:03.515Z,1018.87
2016-09-18T00:56:03.536Z,1018.84
2016-09-18T00:57:03.563Z,1018.91
2016-09-18T00:58:03.580Z,1018.9
2016-09-18T00:59:03.602Z,1018.97
2016-09-18T01:00:03.627Z,1018.86
2016-09-18T01:01:03.644Z,1018.84
2016-09-18T01:02:03.668Z,1018.86
2016-09-18T01:03:03.683Z,1018.81
2016-09-18T01:04:03.712Z,1018.83
2016-09-18T01:05:03.733Z,1018.84
2016-09-18T01:06:03.757Z,1018.82
2016-09-18T01:07:03.774Z,1018.84
2016-09-18T01:08:03.800Z,1018.83
2016-09-18T01:09:03.824Z,1018.85
2016-09-18T01:10:03.842Z,1018.85
2016-09-18T01:11:03.854Z,1018.81
2016-09-18T01:12:03.871Z,1018.85
2016-09-18T01:13:03.957Z,1018.81
2016-09-18T01:14:03.913Z,1018.83
2016-09-18T01:15:03.938Z,1018.72
2016-09-18T01:16:03.967Z,1018.77
2016-09-18T01:17:03.977Z,1018.78
2016-09-18T01:18:04.005Z,1018.76
2016-09-18T01:19:04.027Z,1018.76
2016-09-18T01:20:04.042Z,1018.78
2016-09-18T01:21:04.063Z,1018.76
2016-09-18T01:22:04.084Z,1018.76
2016-09-18T01:23:04.115Z,1018.76
2016-09-18T01:24:04.128Z,1018.76
2016-09-18T01:25:04.158Z,1018.72
2016-09-18T01:26:04.224Z,1018.77
2016-09-18T01:27:04.192Z,1018.79
2016-09-18T01:28:04.227Z,1018.75
2016-09-18T01:29:04.232Z,1018.79
2016-09-18T01:30:04.252Z,1018.76
2016-09-18T01:31:04.272Z,1018.79
2016-09-18T01:32:04.294Z,1018.77
2016-09-18T01:33:04.316Z,1018.79
2016-09-18T01:34:04.331Z,1018.8
2016-09-18T01:35:04.362Z,1018.73
2016-09-18T01:36:04.384Z,1018.78
2016-09-18T01:37:04.404Z,1018.77
2016-09-18T01:38:04.412Z,1018.74
2016-09-18T01:39:04.444Z,1018.78
2016-09-18T01:40:04.460Z,1018.76
2016-09-18T01:41:04.483Z,1018.72
2016-09-18T01:42:04.503Z,1018.77
2016-09-18T01:43:04.521Z,1018.73
2016-09-18T01:44:04.543Z,1018.7
2016-09-18T01:45:04.560Z,1018.69
2016-09-18T01:46:04.587Z,1018.72
2016-09-18T01:47:04.602Z,1018.69
2016-09-18T01:48:04.634Z,1018.63
2016-09-18T01:49:04.643Z,1018.67
2016-09-18T01:50:04.671Z,1018.65
2016-09-18T01:51:04.693Z,1018.66
2016-09-18T01:52:04.758Z,1018.66
2016-09-18T01:53:04.733Z,1018.65
2016-09-18T01:54:04.760Z,1018.64
2016-09-18T01:55:04.775Z,1018.64
2016-09-18T01:56:04.810Z,1018.67
2016-09-18T01:57:04.812Z,1018.63
2016-09-18T01:58:04.831Z,1018.6
2016-09-18T01:59:04.849Z,1018.59
2016-09-18T02:00:04.879Z,1018.59
2016-09-18T02:01:04.895Z,1018.6
2016-09-18T02:02:04.911Z,1018.6
2016-09-18T02:03:04.943Z,1018.62
2016-09-18T02:04:04.955Z,1018.55
2016-09-18T02:05:04.975Z,1018.57
2016-09-18T02:06:05.003Z,1018.57
2016-09-18T02:07:05.022Z,1018.58
2016-09-18T02:08:05.040Z,1018.52
2016-09-18T02:09:05.061Z,1018.54
2016-09-18T02:10:05.080Z,1018.53
2016-09-18T02:11:05.104Z,1018.52
2016-09-18T02:12:05.124Z,1018.56
2016-09-18T02:13:05.143Z,1018.62
2016-09-18T02:14:05.162Z,1018.57
2016-09-18T02:15:05.182Z,1018.64
2016-09-18T02:16:05.200Z,1018.6
2016-09-18T02:17:05.221Z,1018.6
2016-09-18T02:18:05.241Z,1018.66
2016-09-18T02:19:05.265Z,1018.6
2016-09-18T02:20:05.293Z,1018.61
2016-09-18T02:21:05.310Z,1018.64
2016-09-18T02:22:05.334Z,1018.62
2016-09-18T02:23:05.354Z,1018.67
2016-09-18T02:24:05.366Z,1018.62
2016-09-18T02:25:05.392Z,1018.66
2016-09-18T02:26:05.412Z,1018.62
2016-09-18T02:27:05.432Z,1018.69
2016-09-18T02:28:05.452Z,1018.65
2016-09-18T02:29:05.469Z,1018.66
2016-09-18T02:30:05.490Z,1018.65
2016-09-18T02:31:05.519Z,1018.67
2016-09-18T02:32:05.533Z,1018.6
2016-09-18T02:33:05.553Z,1018.6
2016-09-18T02:34:05.576Z,1018.58
2016-09-18T02:35:05.612Z,1018.67
2016-09-18T02:36:05.614Z,1018.66
2016-09-18T02:37:05.640Z,1018.59
2016-09-18T02:38:05.659Z,1018.62
2016-09-18T02:39:05.682Z,1018.61
2016-09-18T02:40:05.695Z,1018.59
2016-09-18T02:41:05.722Z,1018.56
2016-09-18T02:42:05.739Z,1018.56
2016-09-18T02:43:05.753Z,1018.58
2016-09-18T02:44:05.780Z,1018.61
2016-09-18T02:45:05.797Z,1018.56
2016-09-18T02:46:05.818Z,1018.62
2016-09-18T02:47:05.844Z,1018.58
2016-09-18T02:48:05.861Z,1018.6
2016-09-18T02:49:05.882Z,1018.58
2016-09-18T02:50:05.904Z,1018.55
2016-09-18T02:51:05.926Z,1018.59
2016-09-18T02:52:05.941Z,1018.57
2016-09-18T02:53:05.962Z,1018.55
2016-09-18T02:54:05.984Z,1018.51
2016-09-18T02:55:06.004Z,1018.56
2016-09-18T02:56:06.024Z,1018.56
2016-09-18T02:57:06.047Z,1018.55
2016-09-18T02:58:06.062Z,1018.54
2016-09-18T02:59:06.092Z,1018.53
2016-09-18T03:00:06.102Z,1018.52
2016-09-18T03:01:06.122Z,1018.54
2016-09-18T03:02:06.153Z,1018.49
2016-09-18T03:03:06.176Z,1018.52
2016-09-18T03:04:06.219Z,1018.54
2016-09-18T03:05:06.210Z,1018.57
2016-09-18T03:06:06.230Z,1018.61
2016-09-18T03:07:06.255Z,1018.59
2016-09-18T03:08:06.266Z,1018.55
2016-09-18T03:09:06.293Z,1018.47
2016-09-18T03:10:06.306Z,1018.49
2016-09-18T03:11:06.334Z,1018.49
2016-09-18T03:12:06.354Z,1018.46
2016-09-18T03:13:06.373Z,1018.47
2016-09-18T03:14:06.394Z,1018.47
2016-09-18T03:15:06.423Z,1018.42
2016-09-18T03:16:06.434Z,1018.45
2016-09-18T03:17:06.499Z,1018.47
2016-09-18T03:18:06.471Z,1018.39
2016-09-18T03:19:06.493Z,1018.41
2016-09-18T03:20:06.514Z,1018.41
2016-09-18T03:21:06.535Z,1018.41
2016-09-18T03:22:06.553Z,1018.41
2016-09-18T03:23:06.575Z,1018.37
2016-09-18T03:24:06.616Z,1018.37
2016-09-18T03:25:06.623Z,1018.34
2016-09-18T03:26:06.644Z,1018.36
2016-09-18T03:27:06.664Z,1018.46
2016-09-18T03:28:06.682Z,1018.36
2016-09-18T03:29:06.695Z,1018.39
2016-09-18T03:30:06.724Z,1018.36
2016-09-18T03:31:06.742Z,1018.47
2016-09-18T03:32:06.761Z,1018.39
2016-09-18T03:33:06.783Z,1018.41
2016-09-18T03:34:06.803Z,1018.41
2016-09-18T03:35:06.821Z,1018.43
2016-09-18T03:36:06.842Z,1018.35
2016-09-18T03:37:06.858Z,1018.37
2016-09-18T03:38:06.890Z,1018.38
2016-09-18T03:39:06.901Z,1018.33
2016-09-18T03:40:06.922Z,1018.41
2016-09-18T03:41:06.941Z,1018.3
2016-09-18T03:42:06.961Z,1018.38
2016-09-18T03:43:06.984Z,1018.36
2016-09-18T03:44:07.004Z,1018.32
2016-09-18T03:45:07.020Z,1018.31
2016-09-18T03:46:07.041Z,1018.33
2016-09-18T03:47:07.061Z,1018.36
2016-09-18T03:48:07.086Z,1018.31
2016-09-18T03:49:07.101Z,1018.34
2016-09-18T03:50:07.122Z,1018.33
2016-09-18T03:51:07.157Z,1018.42
2016-09-18T03:52:07.173Z,1018.34
2016-09-18T03:53:07.192Z,1018.35
2016-09-18T03:54:07.202Z,1018.36
2016-09-18T03:55:07.227Z,1018.36
2016-09-18T03:56:07.249Z,1018.41
2016-09-18T03:57:07.263Z,1018.34
2016-09-18T03:58:07.287Z,1018.33
2016-09-18T03:59:07.312Z,1018.34
2016-09-18T04:00:07.332Z,1018.3
2016-09-18T04:01:07.345Z,1018.32
2016-09-18T04:02:07.375Z,1018.34
2016-09-18T04:03:07.587Z,1018.36
2016-09-18T04:04:07.414Z,1018.39
2016-09-18T04:05:07.434Z,1018.38
2016-09-18T04:06:07.450Z,1018.39
2016-09-18T04:07:07.467Z,1018.41
2016-09-18T04:08:07.494Z,1018.38
2016-09-18T04:09:07.509Z,1018.38
2016-09-18T04:10:07.533Z,1018.38
2016-09-18T04:11:07.568Z,1018.33
2016-09-18T04:12:07.572Z,1018.34
2016-09-18T04:13:07.593Z,1018.33
2016-09-18T04:14:07.613Z,1018.34
2016-09-18T04:15:07.630Z,1018.34
2016-09-18T04:16:07.652Z,1018.36
2016-09-18T04:17:07.670Z,1018.36
2016-09-18T04:18:07.694Z,1018.4
2016-09-18T04:19:07.711Z,1018.4
2016-09-18T04:20:07.733Z,1018.4
2016-09-18T04:21:07.751Z,1018.42
2016-09-18T04:22:07.772Z,1018.4
2016-09-18T04:23:07.799Z,1018.38
2016-09-18T04:24:07.813Z,1018.33
2016-09-18T04:25:07.830Z,1018.39
2016-09-18T04:26:07.853Z,1018.37
2016-09-18T04:27:07.873Z,1018.39
2016-09-18T04:28:07.903Z,1018.38
2016-09-18T04:29:07.917Z,1018.4
2016-09-18T04:30:07.932Z,1018.4
2016-09-18T04:31:07.960Z,1018.39
2016-09-18T04:32:07.973Z,1018.34
2016-09-18T04:33:08.003Z,1018.37
2016-09-18T04:34:08.020Z,1018.37
2016-09-18T04:35:08.040Z,1018.38
2016-09-18T04:36:08.060Z,1018.36
2016-09-18T04:37:08.074Z,1018.35
2016-09-18T04:38:08.100Z,1018.34
2016-09-18T04:39:08.118Z,1018.33
2016-09-18T04:40:08.136Z,1018.37
2016-09-18T04:41:08.155Z,1018.41
2016-09-18T04:42:08.183Z,1018.38
2016-09-18T04:43:08.197Z,1018.41
2016-09-18T04:44:08.314Z,1018.41
2016-09-18T04:45:08.244Z,1018.41
2016-09-18T04:46:08.264Z,1018.44
2016-09-18T04:47:08.278Z,1018.46
2016-09-18T04:48:08.306Z,1018.42
2016-09-18T04:49:08.314Z,1018.43
2016-09-18T04:50:08.342Z,1018.43
2016-09-18T04:51:08.362Z,1018.47
2016-09-18T04:52:08.384Z,1018.5
2016-09-18T04:53:08.403Z,1018.5
2016-09-18T04:54:08.423Z,1018.53
2016-09-18T04:55:08.447Z,1018.49
2016-09-18T04:56:08.461Z,1018.55
2016-09-18T04:57:08.483Z,1018.55
2016-09-18T04:58:08.501Z,1018.56
2016-09-18T04:59:08.524Z,1018.6
2016-09-18T05:00:08.548Z,1018.58
2016-09-18T05:01:08.560Z,1018.58
2016-09-18T05:02:08.581Z,1018.6
2016-09-18T05:03:08.607Z,1018.61
2016-09-18T05:04:08.622Z,1018.62
2016-09-18T05:05:08.645Z,1018.63
2016-09-18T05:06:08.662Z,1018.62
2016-09-18T05:07:08.683Z,1018.64
2016-09-18T05:08:08.804Z,1018.63
2016-09-18T05:09:08.718Z,1018.67
2016-09-18T05:10:08.746Z,1018.64
2016-09-18T05:11:08.764Z,1018.63
2016-09-18T05:12:08.784Z,1018.64
2016-09-18T05:13:08.796Z,1018.67
2016-09-18T05:14:08.817Z,1018.65
2016-09-18T05:15:08.842Z,1018.67
2016-09-18T05:16:08.865Z,1018.68
2016-09-18T05:17:08.884Z,1018.66
2016-09-18T05:18:08.904Z,1018.68
2016-09-18T05:19:08.928Z,1018.67
2016-09-18T05:20:08.945Z,1018.63
2016-09-18T05:21:08.966Z,1018.66
2016-09-18T05:22:08.987Z,1018.68
2016-09-18T05:23:09.000Z,1018.68
2016-09-18T05:24:09.025Z,1018.68
2016-09-18T05:25:09.055Z,1018.67
2016-09-18T05:26:09.064Z,1018.66
2016-09-18T05:27:09.093Z,1018.63
2016-09-18T05:28:09.107Z,1018.67
2016-09-18T05:29:09.136Z,1018.65
2016-09-18T05:30:09.162Z,1018.66
2016-09-18T05:31:09.169Z,1018.69
2016-09-18T05:32:09.186Z,1018.66
2016-09-18T05:33:09.207Z,1018.65
2016-09-18T05:34:09.225Z,1018.68
2016-09-18T05:35:09.248Z,1018.68
2016-09-18T05:36:09.266Z,1018.71
2016-09-18T05:37:09.285Z,1018.73
2016-09-18T05:38:09.300Z,1018.77
2016-09-18T05:39:09.335Z,1018.81
2016-09-18T05:40:09.347Z,1018.78
2016-09-18T05:41:09.364Z,1018.79
2016-09-18T05:42:09.384Z,1018.81
2016-09-18T05:43:09.417Z,1018.81
2016-09-18T05:44:09.432Z,1018.82
2016-09-18T05:45:09.465Z,1018.84
2016-09-18T05:46:09.476Z,1018.79
2016-09-18T05:47:09.504Z,1018.81
2016-09-18T05:48:09.509Z,1018.83
2016-09-18T05:49:09.532Z,1018.83
2016-09-18T05:50:09.556Z,1018.81
2016-09-18T05:51:09.572Z,1018.83
2016-09-18T05:52:09.844Z,1018.84
2016-09-18T05:53:10.565Z,1018.79
2016-09-18T05:54:10.346Z,1018.84
2016-09-18T05:55:09.857Z,1018.82
2016-09-18T05:56:09.824Z,1018.83
2016-09-18T05:57:09.901Z,1018.85
2016-09-18T05:58:09.865Z,1018.9
2016-09-18T05:59:09.833Z,1018.91
2016-09-18T06:00:10.009Z,1018.94
2016-09-18T06:01:09.775Z,1018.94
2016-09-18T06:02:09.900Z,1018.9
2016-09-18T06:03:10.025Z,1018.95
2016-09-18T06:04:09.895Z,1018.95
2016-09-18T06:05:09.915Z,1018.97
2016-09-18T06:06:09.881Z,1019.02
2016-09-18T06:07:09.899Z,1018.99
2016-09-18T06:08:09.934Z,1018.98
2016-09-18T06:09:10.105Z,1018.99
2016-09-18T06:10:09.982Z,1019
2016-09-18T06:11:10.044Z,1019
2016-09-18T06:12:10.018Z,1018.98
2016-09-18T06:13:10.044Z,1019.01
2016-09-18T06:14:10.063Z,1019.02
2016-09-18T06:15:10.093Z,1019
2016-09-18T06:16:10.113Z,1019.01
2016-09-18T06:17:10.133Z,1019.05
2016-09-18T06:18:10.163Z,1018.98
2016-09-18T06:19:10.189Z,1018.98
2016-09-18T06:20:10.209Z,1019.04
2016-09-18T06:21:10.233Z,1019.04
2016-09-18T06:22:10.262Z,1019.08
2016-09-18T06:23:10.284Z,1019.1
2016-09-18T06:24:10.305Z,1019.13
2016-09-18T06:25:10.333Z,1019.14
2016-09-18T06:26:10.359Z,1019.09
2016-09-18T06:27:10.384Z,1019.13
2016-09-18T06:28:10.412Z,1019.13
2016-09-18T06:29:10.435Z,1019.17
2016-09-18T06:30:10.465Z,1019.11
2016-09-18T06:31:10.493Z,1019.15
2016-09-18T06:32:10.509Z,1019.11
2016-09-18T06:33:10.642Z,1019.11
2016-09-18T06:34:10.567Z,1019.16
2016-09-18T06:35:10.605Z,1019.17
2016-09-18T06:36:10.624Z,1019.22
2016-09-18T06:37:10.644Z,1019.19
2016-09-18T06:38:10.674Z,1019.16
2016-09-18T06:39:10.701Z,1019.16
2016-09-18T06:40:10.727Z,1019.15
2016-09-18T06:41:10.760Z,1019.17
2016-09-18T06:42:10.884Z,1019.18
2016-09-18T06:43:10.802Z,1019.16
2016-09-18T06:44:10.887Z,1019.18
2016-09-18T06:45:10.857Z,1019.14
2016-09-18T06:46:10.883Z,1019.21
2016-09-18T06:47:10.914Z,1019.16
2016-09-18T06:48:10.945Z,1019.13
2016-09-18T06:49:10.974Z,1019.17
2016-09-18T06:50:10.995Z,1019.16
2016-09-18T06:51:11.019Z,1019.18
2016-09-18T06:52:11.051Z,1019.19
2016-09-18T06:53:11.083Z,1019.2
2016-09-18T06:54:11.105Z,1019.16
2016-09-18T06:55:11.132Z,1019.16
2016-09-18T06:56:11.160Z,1019.19
2016-09-18T06:57:11.192Z,1019.19
2016-09-18T06:58:11.213Z,1019.18
2016-09-18T06:59:11.239Z,1019.19
2016-09-18T07:00:11.278Z,1019.19
2016-09-18T07:01:11.292Z,1019.21
2016-09-18T07:02:11.329Z,1019.17
2016-09-18T07:03:11.352Z,1019.14
2016-09-18T07:04:11.379Z,1019.16
2016-09-18T07:05:11.407Z,1019.18
2016-09-18T07:06:11.437Z,1019.13
2016-09-18T07:07:11.465Z,1019.09
2016-09-18T07:08:11.496Z,1019.1
2016-09-18T07:09:11.524Z,1019.09
2016-09-18T07:10:11.548Z,1019.07
2016-09-18T07:11:11.573Z,1019.05
2016-09-18T07:12:11.600Z,1019.11
2016-09-18T07:13:11.633Z,1019.09
2016-09-18T07:14:11.663Z,1019.13
2016-09-18T07:15:11.682Z,1019.15
2016-09-18T07:16:11.713Z,1019.09
2016-09-18T07:17:11.745Z,1019.11
2016-09-18T07:18:11.773Z,1019.13
2016-09-18T07:19:11.794Z,1019.1
2016-09-18T07:20:11.829Z,1019.15
2016-09-18T07:21:11.852Z,1019.11
2016-09-18T07:22:11.878Z,1019.09
2016-09-18T07:23:11.908Z,1019.09
2016-09-18T07:24:11.947Z,1019.09
2016-09-18T07:25:11.963Z,1019.1
2016-09-18T07:26:12.008Z,1019.07
2016-09-18T07:27:12.019Z,1019.08
2016-09-18T07:28:12.044Z,1019.12
2016-09-18T07:29:12.072Z,1019.08
2016-09-18T07:30:12.102Z,1019.11
2016-09-18T07:31:12.126Z,1019.05
2016-09-18T07:32:12.150Z,1019.08
2016-09-18T07:33:12.184Z,1019.1
2016-09-18T07:34:12.209Z,1019.01
2016-09-18T07:35:12.245Z,1019.04
2016-09-18T07:36:12.259Z,1018.94
2016-09-18T07:37:12.291Z,1018.95
2016-09-18T07:38:12.322Z,1018.94
2016-09-18T07:39:12.357Z,1018.96
2016-09-18T07:40:12.368Z,1018.96
2016-09-18T07:41:12.394Z,1018.91
2016-09-18T07:42:12.426Z,1018.89
2016-09-18T07:43:12.449Z,1018.88
2016-09-18T07:44:12.607Z,1018.85
2016-09-18T07:45:12.494Z,1018.82
2016-09-18T07:46:12.523Z,1018.82
2016-09-18T07:47:12.546Z,1018.85
2016-09-18T07:48:12.573Z,1018.83
2016-09-18T07:49:12.596Z,1018.79
2016-09-18T07:50:12.621Z,1018.77
2016-09-18T07:51:12.645Z,1018.78
2016-09-18T07:52:12.667Z,1018.77
2016-09-18T07:53:12.693Z,1018.75
2016-09-18T07:54:12.720Z,1018.81
2016-09-18T07:55:12.747Z,1018.78
2016-09-18T07:56:12.765Z,1018.83
2016-09-18T07:57:12.787Z,1018.82
2016-09-18T07:58:12.815Z,1018.79
2016-09-18T07:59:12.852Z,1018.81
2016-09-18T08:00:12.864Z,1018.78
2016-09-18T08:01:12.884Z,1018.84
2016-09-18T08:02:12.902Z,1018.8
2016-09-18T08:03:12.937Z,1018.82
2016-09-18T08:04:12.954Z,1018.85
2016-09-18T08:05:12.976Z,1018.82
2016-09-18T08:06:13.007Z,1018.83
2016-09-18T08:07:13.029Z,1018.83
2016-09-18T08:08:13.051Z,1018.79
2016-09-18T08:09:13.069Z,1018.81
2016-09-18T08:10:13.096Z,1018.86
2016-09-18T08:11:13.123Z,1018.84
2016-09-18T08:12:13.146Z,1018.84
2016-09-18T08:13:13.167Z,1018.86
2016-09-18T08:14:13.190Z,1018.78
2016-09-18T08:15:13.217Z,1018.8
2016-09-18T08:16:13.235Z,1018.82
2016-09-18T08:17:13.263Z,1018.85
2016-09-18T08:18:13.285Z,1018.78
2016-09-18T08:19:13.310Z,1018.84
2016-09-18T08:20:13.330Z,1018.81
2016-09-18T08:21:13.357Z,1018.87
2016-09-18T08:22:13.384Z,1018.83
2016-09-18T08:23:13.396Z,1018.87
2016-09-18T08:24:13.422Z,1019.01
2016-09-18T08:25:13.446Z,1018.88
2016-09-18T08:26:13.469Z,1018.94
2016-09-18T08:27:13.495Z,1018.84
2016-09-18T08:28:13.524Z,1018.82
2016-09-18T08:29:13.536Z,1018.97
2016-09-18T08:30:13.559Z,1018.91
2016-09-18T08:31:13.582Z,1018.87
2016-09-18T08:32:13.607Z,1018.88
2016-09-18T08:33:13.629Z,1018.87
2016-09-18T08:34:13.656Z,1018.9
2016-09-18T08:35:13.681Z,1018.89
2016-09-18T08:36:13.701Z,1018.91
2016-09-18T08:37:13.721Z,1018.86
2016-09-18T08:38:13.745Z,1018.91
2016-09-18T08:39:13.772Z,1018.91
2016-09-18T08:40:13.800Z,1018.88
2016-09-18T08:41:13.825Z,1018.86
2016-09-18T08:42:13.843Z,1018.87
2016-09-18T08:43:13.865Z,1018.85
2016-09-18T08:44:13.886Z,1018.87
2016-09-18T08:45:13.910Z,1018.86
2016-09-18T08:46:13.935Z,1018.96
2016-09-18T08:47:13.952Z,1018.92
2016-09-18T08:48:13.983Z,1018.85
2016-09-18T08:49:14.003Z,1018.87
2016-09-18T08:50:14.025Z,1018.85
2016-09-18T08:51:14.059Z,1018.86
2016-09-18T08:52:14.078Z,1018.85
2016-09-18T08:53:14.101Z,1018.82
2016-09-18T08:54:14.172Z,1018.88
2016-09-18T08:55:14.151Z,1018.86
2016-09-18T08:56:14.169Z,1018.87
2016-09-18T08:57:14.198Z,1018.87
2016-09-18T08:58:14.212Z,1018.79
2016-09-18T08:59:14.242Z,1018.84
2016-09-18T09:00:14.264Z,1018.81
2016-09-18T09:01:14.283Z,1018.88
2016-09-18T09:02:14.307Z,1018.81
2016-09-18T09:03:14.334Z,1018.91
2016-09-18T09:04:14.359Z,1018.84
2016-09-18T09:05:14.389Z,1018.72
2016-09-18T09:06:14.415Z,1018.78
2016-09-18T09:07:14.435Z,1018.79
2016-09-18T09:08:14.459Z,1018.82
2016-09-18T09:09:14.475Z,1018.82
2016-09-18T09:10:14.503Z,1018.84
2016-09-18T09:11:14.522Z,1018.82
2016-09-18T09:12:14.550Z,1018.79
2016-09-18T09:13:14.575Z,1018.82
2016-09-18T09:14:14.595Z,1018.79
2016-09-18T09:15:14.626Z,1018.8
2016-09-18T09:16:14.648Z,1018.83
2016-09-18T09:17:14.670Z,1018.88
2016-09-18T09:18:14.696Z,1018.81
2016-09-18T09:19:14.717Z,1018.8
2016-09-18T09:20:14.745Z,1018.78
2016-09-18T09:21:14.767Z,1018.9
2016-09-18T09:22:14.794Z,1018.79
2016-09-18T09:23:14.814Z,1018.78
2016-09-18T09:24:14.843Z,1018.82
2016-09-18T09:25:14.864Z,1018.75
2016-09-18T09:26:14.899Z,1018.78
2016-09-18T09:27:14.975Z,1018.82
2016-09-18T09:28:14.932Z,1018.81
2016-09-18T09:29:14.957Z,1018.89
2016-09-18T09:30:14.986Z,1018.84
2016-09-18T09:31:15.007Z,1018.78
2016-09-18T09:32:15.038Z,1018.83
2016-09-18T09:33:15.056Z,1018.86
2016-09-18T09:34:15.085Z,1018.77
2016-09-18T09:35:15.108Z,1018.82
2016-09-18T09:36:15.135Z,1018.84
2016-09-18T09:37:15.154Z,1018.75
2016-09-18T09:38:15.175Z,1018.78
2016-09-18T09:39:15.206Z,1018.75
2016-09-18T09:40:15.239Z,1018.76
2016-09-18T09:41:15.253Z,1018.78
2016-09-18T09:42:15.275Z,1018.81
2016-09-18T09:43:15.300Z,1018.77
2016-09-18T09:44:15.327Z,1018.74
2016-09-18T09:45:15.356Z,1018.73
2016-09-18T09:46:15.372Z,1018.72
2016-09-18T09:47:15.396Z,1018.78
2016-09-18T09:48:15.426Z,1018.73
2016-09-18T09:49:15.442Z,1018.66
2016-09-18T09:50:15.475Z,1018.69
2016-09-18T09:51:15.503Z,1018.7
2016-09-18T09:52:15.524Z,1018.73
2016-09-18T09:53:15.548Z,1018.77
2016-09-18T09:54:15.564Z,1018.71
2016-09-18T09:55:15.593Z,1018.74
2016-09-18T09:56:15.613Z,1018.7
2016-09-18T09:57:15.639Z,1018.71
2016-09-18T09:58:15.668Z,1018.73
2016-09-18T09:59:15.697Z,1018.74
2016-09-18T10:00:15.716Z,1018.77
2016-09-18T10:01:15.743Z,1018.74
2016-09-18T10:02:15.756Z,1018.77
2016-09-18T10:03:15.785Z,1018.74
2016-09-18T10:04:15.810Z,1018.68
2016-09-18T10:05:15.833Z,1018.68
2016-09-18T10:06:15.865Z,1018.7
2016-09-18T10:07:15.884Z,1018.71
2016-09-18T10:08:15.916Z,1018.68
2016-09-18T10:09:15.939Z,1018.64
2016-09-18T10:10:15.952Z,1018.66
2016-09-18T10:11:15.980Z,1018.71
2016-09-18T10:12:16.006Z,1018.71
2016-09-18T10:13:16.045Z,1018.74
2016-09-18T10:14:16.060Z,1018.73
2016-09-18T10:15:16.078Z,1018.74
2016-09-18T10:16:16.106Z,1018.75
2016-09-18T10:17:16.128Z,1018.77
2016-09-18T10:18:16.156Z,1018.74
2016-09-18T10:19:16.187Z,1018.76
2016-09-18T10:20:16.204Z,1018.72
2016-09-18T10:21:16.233Z,1018.75
2016-09-18T10:22:16.254Z,1018.77
2016-09-18T10:23:16.275Z,1018.73
2016-09-18T10:24:16.354Z,1018.85
2016-09-18T10:25:16.327Z,1018.73
2016-09-18T10:26:16.354Z,1018.75
2016-09-18T10:27:16.375Z,1018.79
2016-09-18T10:28:16.405Z,1018.69
2016-09-18T10:29:16.433Z,1018.72
2016-09-18T10:30:16.456Z,1018.68
2016-09-18T10:31:16.481Z,1018.67
2016-09-18T10:32:16.504Z,1018.68
2016-09-18T10:33:16.538Z,1018.72
2016-09-18T10:34:16.558Z,1018.72
2016-09-18T10:35:16.625Z,1018.64
2016-09-18T10:36:16.606Z,1018.67
2016-09-18T10:37:16.628Z,1018.63
2016-09-18T10:38:16.658Z,1018.69
2016-09-18T10:39:16.691Z,1018.64
2016-09-18T10:40:16.909Z,1018.81
2016-09-18T10:41:16.729Z,1018.72
2016-09-18T10:42:16.757Z,1018.65
2016-09-18T10:43:16.776Z,1018.69
2016-09-18T10:44:16.823Z,1018.65
2016-09-18T10:45:16.827Z,1018.61
2016-09-18T10:46:16.861Z,1018.62
2016-09-18T10:47:16.886Z,1018.65
2016-09-18T10:48:16.906Z,1018.65
2016-09-18T10:49:16.936Z,1018.67
2016-09-18T10:50:16.955Z,1018.79
2016-09-18T10:51:16.979Z,1018.72
2016-09-18T10:52:17.007Z,1018.73
2016-09-18T10:53:17.036Z,1018.77
2016-09-18T10:54:17.058Z,1018.69
2016-09-18T10:55:17.103Z,1018.72
2016-09-18T10:56:17.105Z,1018.76
2016-09-18T10:57:17.135Z,1018.68
2016-09-18T10:58:17.156Z,1018.62
2016-09-18T10:59:17.242Z,1018.58
2016-09-18T11:00:17.207Z,1018.66
2016-09-18T11:01:17.245Z,1018.63
2016-09-18T11:02:17.261Z,1018.72
2016-09-18T11:03:17.281Z,1018.64
2016-09-18T11:04:17.306Z,1018.61
2016-09-18T11:05:17.336Z,1018.63
2016-09-18T11:06:17.375Z,1018.52
2016-09-18T11:07:17.385Z,1018.61
2016-09-18T11:08:17.414Z,1018.53
2016-09-18T11:09:17.438Z,1018.65
2016-09-18T11:10:17.464Z,1018.65
2016-09-18T11:11:17.495Z,1018.6
2016-09-18T11:12:17.520Z,1018.66
2016-09-18T11:13:17.542Z,1018.63
2016-09-18T11:14:17.573Z,1018.66
2016-09-18T11:15:17.591Z,1018.62
2016-09-18T11:16:17.616Z,1018.57
2016-09-18T11:17:17.642Z,1018.57
2016-09-18T11:18:17.668Z,1018.56
2016-09-18T11:19:17.694Z,1018.48
2016-09-18T11:20:17.719Z,1018.54
2016-09-18T11:21:17.749Z,1018.45
2016-09-18T11:22:17.772Z,1018.49
2016-09-18T11:23:17.793Z,1018.48
2016-09-18T11:24:17.815Z,1018.56
2016-09-18T11:25:17.850Z,1018.47
2016-09-18T11:26:17.872Z,1018.53
2016-09-18T11:27:17.899Z,1018.59
2016-09-18T11:28:17.925Z,1018.5
2016-09-18T11:29:17.953Z,1018.54
2016-09-18T11:30:17.980Z,1018.49
2016-09-18T11:31:18.006Z,1018.53
2016-09-18T11:32:18.032Z,1018.43
2016-09-18T11:33:18.056Z,1018.5
2016-09-18T11:34:18.085Z,1018.48
2016-09-18T11:35:18.117Z,1018.49
2016-09-18T11:36:18.132Z,1018.53
2016-09-18T11:37:18.165Z,1018.52
2016-09-18T11:38:18.201Z,1018.5
2016-09-18T11:39:18.220Z,1018.56
2016-09-18T11:40:18.242Z,1018.55
2016-09-18T11:41:18.273Z,1018.68
2016-09-18T11:42:18.294Z,1018.65
2016-09-18T11:43:18.319Z,1018.62
2016-09-18T11:44:18.352Z,1018.64
2016-09-18T11:45:18.375Z,1018.61
2016-09-18T11:46:18.402Z,1018.65
2016-09-18T11:47:18.424Z,1018.52
2016-09-18T11:48:18.473Z,1018.57
2016-09-18T11:49:18.481Z,1018.58
2016-09-18T11:50:18.515Z,1018.58
2016-09-18T11:51:18.537Z,1018.6
2016-09-18T11:52:18.576Z,1018.59
2016-09-18T11:53:18.607Z,1018.57
2016-09-18T11:54:18.617Z,1018.51
2016-09-18T11:55:18.642Z,1018.54
2016-09-18T11:56:18.669Z,1018.58
2016-09-18T11:57:18.697Z,1018.55
2016-09-18T11:58:18.726Z,1018.53
2016-09-18T11:59:18.754Z,1018.54
2016-09-18T12:00:18.777Z,1018.52
2016-09-18T12:01:18.896Z,1018.51
2016-09-18T12:02:18.831Z,1018.46
2016-09-18T12:03:18.869Z,1018.45
2016-09-18T12:04:18.892Z,1018.39
2016-09-18T12:05:18.913Z,1018.5
2016-09-18T12:06:18.941Z,1018.5
2016-09-18T12:07:18.970Z,1018.48